San Pedro, Belize

1:30 PM CST on November 27, 2014 (GMT -0600)
Mosquito Coast | Change Station
CLOSE
Current Station
Personal Weather Station
Location: San Pedro Town, Ambergris Caye
Elevation: 40 ft
Nearby Weather Stations

Elev 40 ft 17.89 °N, 87.98 °W | Updated 7 minutes ago

Overcast
Overcast
73.4 °F
Feels Like 74 °F
N
18.0
Wind Variable Wind from North
Gusts 29.0 mph

Today
High -- | Low -- °F
--% Chance of Precip.
Yesterday
High -- | Low -- °F
Precip. -- in
6:04 AM 5:14 PM
Waxing Crescent, 32% visible
Pressure 30.14 in
Visibility 6.2 miles
Clouds Few 1800 ft
Overcast 3900 ft
Heat Index 74 °F
Dew Point 66 °F
Humidity 79%
Rainfall 0.00 in
Snow Depth Not available.
UV 3 out of 12
Pollen Not available.
Air Quality Not available.
Flu Activity Not available.
METAR MZBZ 271900Z 28006KT 9999 FEW018 OVC039 19/18 A3014 Q1020 NOSIG

More Conditions Fewer Conditions

Pressure 30.14 in
Visibility 6.2 miles
Clouds Few 1800 ft
Overcast 3900 ft
Heat Index 74 °F
Dew Point 66 °F
Humidity 79%
Rainfall 0.00 in
Snow Depth Not available.
UV 3 out of 12
Pollen Not available.
Air Quality Not available.
Flu Activity Not available.
METAR MZBZ 271900Z 28006KT 9999 FEW018 OVC039 19/18 A3014 Q1020 NOSIG

More Conditions Fewer Conditions

10-Day Weather Forecast

Almanac

Astronomy

Nov. 27, 2014 Rise Set
Actual Time
Civil Twilight
Nautical Twilight
Astronomical Twilight
Moon
Length of Visible Light
Length of Day
Tomorrow will be .
, % of the Moon is Illuminated

Today's Extremes

Country Highs Country Lows

Community

WunderPhotos

Upload Photos

1,774,092 photos uploaded!

WunderBlogs® & News

Nearby

Air Quality

  Air Quality AQ Index Pollutant
Not available.

Snow Depth

Station Depth Elevation

Earthquake Activity

City Distance Mag. Time & Date
Minimum magnitude displayed is 2.5.

Coastal Water Temperatures

Place Temperature

Nearby Weather Stations